createdAt,value
2019-03-08T00:01:10.364Z,8.23
2019-03-08T00:03:41.611Z,8.30
2019-03-08T00:06:12.970Z,8.34
2019-03-08T00:08:43.817Z,8.33
2019-03-08T00:11:15.364Z,8.25
2019-03-08T00:13:46.220Z,8.24
2019-03-08T00:16:17.015Z,8.18
2019-03-08T00:18:47.835Z,8.23
2019-03-08T00:21:19.171Z,8.25
2019-03-08T00:23:51.804Z,8.28
2019-03-08T00:26:22.677Z,8.24
2019-03-08T00:28:59.373Z,8.30
2019-03-08T00:31:31.515Z,8.22
2019-03-08T00:34:02.422Z,8.28
2019-03-08T00:36:33.144Z,8.25
2019-03-08T00:39:05.040Z,8.19
2019-03-08T00:41:36.990Z,8.15
2019-03-08T00:44:07.704Z,8.21
2019-03-08T00:46:38.463Z,8.32
2019-03-08T00:49:19.680Z,8.24
2019-03-08T00:51:53.672Z,8.28
2019-03-08T00:54:27.778Z,8.24
2019-03-08T00:56:58.522Z,8.07
2019-03-08T00:59:29.080Z,8.11
2019-03-08T01:02:01.642Z,7.94
2019-03-08T01:04:35.694Z,7.92
2019-03-08T01:07:07.760Z,7.93
2019-03-08T01:09:38.516Z,7.78
2019-03-08T01:12:09.288Z,7.82
2019-03-08T01:14:43.044Z,7.62
2019-03-08T01:17:13.896Z,7.60
2019-03-08T01:19:46.783Z,7.74
2019-03-08T01:22:17.447Z,7.58
2019-03-08T01:25:01.003Z,7.63
2019-03-08T01:27:35.020Z,7.64
2019-03-08T01:30:08.738Z,7.58
2019-03-08T01:32:39.535Z,7.45
2019-03-08T01:35:10.254Z,7.46
2019-03-08T01:37:40.979Z,7.42
2019-03-08T01:40:11.882Z,7.44
2019-03-08T01:42:52.913Z,7.40
2019-03-08T01:45:30.265Z,7.38
2019-03-08T01:48:01.065Z,7.51
2019-03-08T01:50:34.174Z,7.32
2019-03-08T01:53:13.030Z,7.40
2019-03-08T01:55:43.892Z,7.51
2019-03-08T01:58:14.695Z,7.38
2019-03-08T02:00:45.711Z,7.35
2019-03-08T02:03:17.243Z,7.40
2019-03-08T02:05:51.677Z,7.40
2019-03-08T02:08:22.907Z,7.45
2019-03-08T02:10:54.830Z,7.44
2019-03-08T02:13:26.513Z,7.36
2019-03-08T02:15:57.116Z,7.39
2019-03-08T02:18:27.865Z,7.42
2019-03-08T02:21:16.598Z,7.29
2019-03-08T02:23:47.321Z,7.37
2019-03-08T02:26:18.070Z,7.26
2019-03-08T02:28:48.903Z,7.20
2019-03-08T02:31:19.854Z,7.09
2019-03-08T02:33:50.581Z,7.06
2019-03-08T02:36:40.986Z,7.05
2019-03-08T02:39:14.112Z,6.94
2019-03-08T02:41:44.946Z,7.01
2019-03-08T02:44:15.607Z,7.22
2019-03-08T02:46:46.317Z,7.30
2019-03-08T02:49:16.952Z,6.97
2019-03-08T02:51:48.117Z,7.05
2019-03-08T02:54:18.871Z,6.92
2019-03-08T02:56:49.700Z,6.99
2019-03-08T02:59:20.526Z,6.85
2019-03-08T03:01:51.202Z,6.92
2019-03-08T03:04:23.114Z,6.77
2019-03-08T03:06:53.764Z,6.76
2019-03-08T03:09:24.766Z,6.63
2019-03-08T03:12:01.846Z,6.71
2019-03-08T03:14:32.743Z,6.70
2019-03-08T03:17:10.818Z,6.80
2019-03-08T03:19:41.724Z,6.79
2019-03-08T03:22:12.394Z,6.76
2019-03-08T03:24:43.134Z,6.87
2019-03-08T03:27:13.859Z,6.81
2019-03-08T03:29:44.656Z,6.80
2019-03-08T03:32:26.713Z,6.93
2019-03-08T03:34:57.561Z,6.78
2019-03-08T03:37:28.361Z,6.90
2019-03-08T03:40:12.961Z,6.75
2019-03-08T03:42:43.844Z,6.83
2019-03-08T03:45:17.982Z,6.87
2019-03-08T03:47:49.707Z,6.75
2019-03-08T03:50:20.619Z,6.79
2019-03-08T03:52:51.510Z,6.88
2019-03-08T03:55:22.350Z,6.81
2019-03-08T03:57:58.378Z,6.90
2019-03-08T04:00:29.188Z,6.81
2019-03-08T04:03:00.157Z,6.82
2019-03-08T04:05:30.927Z,6.78
2019-03-08T04:08:01.461Z,6.59
2019-03-08T04:10:39.790Z,6.74
2019-03-08T04:13:10.637Z,6.65
2019-03-08T04:15:41.306Z,6.86
2019-03-08T04:18:11.888Z,6.90
2019-03-08T04:20:45.902Z,6.89
2019-03-08T04:23:22.233Z,6.80
2019-03-08T04:25:52.998Z,6.80
2019-03-08T04:28:29.715Z,6.67
2019-03-08T04:31:15.772Z,6.71
2019-03-08T04:33:46.750Z,6.83
2019-03-08T04:36:17.673Z,6.77
2019-03-08T04:39:07.918Z,6.75
2019-03-08T04:41:38.627Z,6.78
2019-03-08T04:44:09.618Z,6.87
2019-03-08T04:46:43.840Z,6.75
2019-03-08T04:49:29.842Z,6.86
2019-03-08T04:52:04.781Z,6.79
2019-03-08T04:54:50.489Z,7.00
2019-03-08T04:57:29.283Z,6.84
2019-03-08T05:00:37.334Z,7.04
2019-03-08T05:03:08.169Z,7.07
2019-03-08T05:05:38.896Z,7.08
2019-03-08T05:08:14.304Z,6.93
2019-03-08T05:10:45.021Z,6.97
2019-03-08T05:13:17.900Z,6.93
2019-03-08T05:15:49.741Z,6.92
2019-03-08T05:18:33.797Z,6.98
2019-03-08T05:21:04.552Z,6.96
2019-03-08T05:23:35.354Z,6.95
2019-03-08T05:26:06.218Z,6.93
2019-03-08T05:28:42.530Z,6.94
2019-03-08T05:31:13.151Z,6.93
2019-03-08T05:33:43.879Z,6.90
2019-03-08T05:36:14.671Z,6.80
2019-03-08T05:38:45.427Z,7.01
2019-03-08T05:41:29.427Z,6.76
2019-03-08T05:44:00.155Z,6.75
2019-03-08T05:46:32.963Z,6.75
2019-03-08T05:49:03.754Z,6.83
2019-03-08T05:51:41.076Z,6.83
2019-03-08T05:54:23.331Z,6.89
2019-03-08T05:57:05.333Z,6.98
2019-03-08T05:59:42.430Z,6.89
2019-03-08T06:02:18.680Z,6.89
2019-03-08T06:04:57.024Z,6.83
2019-03-08T06:07:33.679Z,6.84
2019-03-08T06:10:04.938Z,6.84
2019-03-08T06:12:42.889Z,6.90
2019-03-08T06:15:17.775Z,7.03
2019-03-08T06:17:48.544Z,7.02
2019-03-08T06:20:19.379Z,6.92
2019-03-08T06:22:50.221Z,6.89
2019-03-08T06:25:21.074Z,6.99
2019-03-08T06:27:52.882Z,7.08
2019-03-08T06:30:23.834Z,7.02
2019-03-08T06:32:54.935Z,7.09
2019-03-08T06:35:29.743Z,7.21
2019-03-08T06:38:00.557Z,7.31
2019-03-08T06:40:31.320Z,7.19
2019-03-08T06:43:03.272Z,7.13
2019-03-08T06:45:34.353Z,7.19
2019-03-08T06:48:05.147Z,7.06
2019-03-08T06:50:38.924Z,7.12
2019-03-08T06:53:10.401Z,7.07
2019-03-08T06:55:45.597Z,7.06
2019-03-08T06:58:20.178Z,7.16
2019-03-08T07:00:52.715Z,7.03
2019-03-08T07:03:24.878Z,7.07
2019-03-08T07:05:56.374Z,7.13
2019-03-08T07:08:27.084Z,7.00
2019-03-08T07:11:00.109Z,6.96
2019-03-08T07:13:38.478Z,7.11
2019-03-08T07:16:13.137Z,7.19
2019-03-08T07:19:07.378Z,7.30
2019-03-08T07:21:40.204Z,7.35
2019-03-08T07:24:33.756Z,7.38
2019-03-08T07:27:16.903Z,7.30
2019-03-08T07:30:00.045Z,7.46
2019-03-08T07:32:33.862Z,7.31
2019-03-08T07:35:35.726Z,7.45
2019-03-08T07:38:14.130Z,7.57
2019-03-08T07:40:46.745Z,7.67
2019-03-08T07:43:33.249Z,7.76
2019-03-08T07:46:08.665Z,7.62
2019-03-08T07:48:46.385Z,7.60
2019-03-08T07:51:21.616Z,7.80
2019-03-08T07:54:08.059Z,7.71
2019-03-08T07:56:53.693Z,7.93
2019-03-08T07:59:26.316Z,8.21
2019-03-08T08:02:01.470Z,8.39
2019-03-08T08:04:50.335Z,8.15
2019-03-08T08:07:25.758Z,8.38
2019-03-08T08:10:15.476Z,8.53
2019-03-08T08:13:06.182Z,8.42
2019-03-08T08:15:39.276Z,8.10
2019-03-08T08:18:30.354Z,8.31
2019-03-08T08:21:06.327Z,8.28
2019-03-08T08:23:54.788Z,8.02
2019-03-08T08:26:27.945Z,8.19
2019-03-08T08:29:06.808Z,8.05
2019-03-08T08:31:57.088Z,8.47
2019-03-08T08:34:31.586Z,8.41
2019-03-08T08:37:22.282Z,8.91
2019-03-08T08:39:55.159Z,8.81
2019-03-08T08:42:38.537Z,8.98
2019-03-08T08:45:28.864Z,9.13
2019-03-08T08:48:01.288Z,8.62
2019-03-08T08:50:37.118Z,8.76
2019-03-08T08:53:12.237Z,8.85
2019-03-08T08:55:44.535Z,8.75
2019-03-08T08:58:26.143Z,8.77
2019-03-08T09:01:17.861Z,8.78
2019-03-08T09:04:13.652Z,8.79
2019-03-08T09:06:45.888Z,8.81
2019-03-08T09:09:27.147Z,8.84
2019-03-08T09:11:59.600Z,8.59
2019-03-08T09:14:32.049Z,9.00
2019-03-08T09:17:15.319Z,8.70
2019-03-08T09:19:50.720Z,8.67
2019-03-08T09:22:32.915Z,8.48
2019-03-08T09:25:32.500Z,8.71
2019-03-08T09:28:17.202Z,8.56
2019-03-08T09:30:54.190Z,8.71
2019-03-08T09:33:29.442Z,8.73
2019-03-08T09:36:03.930Z,8.70
2019-03-08T09:38:37.686Z,8.65
2019-03-08T09:41:15.899Z,8.57
2019-03-08T09:44:31.732Z,8.75
2019-03-08T09:47:12.017Z,8.46
2019-03-08T09:49:50.080Z,8.59
2019-03-08T09:52:35.111Z,8.57
2019-03-08T09:55:22.650Z,8.76
2019-03-08T09:58:07.568Z,8.90
2019-03-08T10:00:52.043Z,9.14
2019-03-08T10:03:46.506Z,9.29
2019-03-08T10:06:25.368Z,9.65
2019-03-08T10:09:03.881Z,9.72
2019-03-08T10:11:46.619Z,9.70
2019-03-08T10:14:25.425Z,9.53
2019-03-08T10:17:17.110Z,9.23
2019-03-08T10:19:55.613Z,9.39
2019-03-08T10:22:49.711Z,9.30
2019-03-08T10:25:24.936Z,9.21
2019-03-08T10:28:12.580Z,9.26
2019-03-08T10:31:01.476Z,9.10
2019-03-08T10:33:52.250Z,9.15
2019-03-08T10:36:34.297Z,9.06
2019-03-08T10:39:30.215Z,8.53
2019-03-08T10:42:02.437Z,8.16
2019-03-08T10:44:47.610Z,8.16
2019-03-08T10:47:32.332Z,7.90
2019-03-08T10:50:21.001Z,7.92
2019-03-08T10:52:53.463Z,7.85
2019-03-08T10:55:37.382Z,7.73
2019-03-08T10:58:26.580Z,7.55
2019-03-08T11:00:59.021Z,7.61
2019-03-08T11:03:36.558Z,7.82
2019-03-08T11:06:16.922Z,7.97
2019-03-08T11:08:49.213Z,8.20
2019-03-08T11:11:21.439Z,8.42
2019-03-08T11:14:02.809Z,8.72
2019-03-08T11:16:36.227Z,8.82
2019-03-08T11:19:09.128Z,8.78
2019-03-08T11:21:47.728Z,8.91
2019-03-08T11:24:20.219Z,9.03
2019-03-08T11:27:04.536Z,9.19
2019-03-08T11:29:32.829Z,9.89
2019-03-08T11:32:22.503Z,10.30
2019-03-08T11:34:52.413Z,10.35
2019-03-08T11:37:28.146Z,10.17
2019-03-08T11:40:07.110Z,9.70
2019-03-08T11:42:44.876Z,9.73
2019-03-08T11:45:20.111Z,9.69
2019-03-08T11:48:03.686Z,9.57
2019-03-08T11:50:52.244Z,9.53
2019-03-08T11:53:55.793Z,9.23
2019-03-08T11:56:23.775Z,9.33
2019-03-08T11:59:07.355Z,9.47
2019-03-08T12:01:56.380Z,9.39
2019-03-08T12:04:31.701Z,9.80
2019-03-08T12:07:33.953Z,10.02
2019-03-08T12:10:24.937Z,10.29
2019-03-08T12:13:06.251Z,10.40
2019-03-08T12:15:38.723Z,10.56
2019-03-08T12:18:17.268Z,10.74
2019-03-08T12:20:52.768Z,10.65
2019-03-08T12:23:49.324Z,11.04
2019-03-08T12:26:24.767Z,10.95
2019-03-08T12:29:02.911Z,11.31
2019-03-08T12:31:42.028Z,11.23
2019-03-08T12:34:24.425Z,11.43
2019-03-08T12:37:13.631Z,11.37
2019-03-08T12:39:51.211Z,11.44
2019-03-08T12:42:39.702Z,11.54
2019-03-08T12:45:13.242Z,11.78
2019-03-08T12:47:55.716Z,11.68
2019-03-08T12:50:32.340Z,11.29
2019-03-08T12:53:23.049Z,11.21
2019-03-08T12:56:01.782Z,10.96
2019-03-08T12:58:46.973Z,10.78
2019-03-08T13:01:23.042Z,10.38
2019-03-08T13:04:08.095Z,10.30
2019-03-08T13:06:40.521Z,10.50
2019-03-08T13:09:14.851Z,10.85
2019-03-08T13:11:52.080Z,11.06
2019-03-08T13:14:31.386Z,10.92
2019-03-08T13:17:03.302Z,11.00
2019-03-08T13:19:34.207Z,10.97
2019-03-08T13:22:10.665Z,10.85
2019-03-08T13:24:54.851Z,10.81
2019-03-08T13:27:32.910Z,10.78
2019-03-08T13:30:16.060Z,10.86
2019-03-08T13:32:47.861Z,10.64
2019-03-08T13:35:19.983Z,10.65
2019-03-08T13:37:54.077Z,10.71
2019-03-08T13:40:27.272Z,10.55
2019-03-08T13:42:58.150Z,10.52
2019-03-08T13:45:30.987Z,10.55
2019-03-08T13:48:09.490Z,10.61
2019-03-08T13:50:43.660Z,10.51
2019-03-08T13:53:20.335Z,10.76
2019-03-08T13:55:51.117Z,10.67
2019-03-08T13:58:23.948Z,10.99
2019-03-08T14:00:55.183Z,11.12
2019-03-08T14:03:38.161Z,11.25
2019-03-08T14:06:08.855Z,11.22
2019-03-08T14:08:39.389Z,11.21
2019-03-08T14:11:10.238Z,11.18
2019-03-08T14:13:40.947Z,11.03
2019-03-08T14:16:12.693Z,10.95
2019-03-08T14:18:43.389Z,11.10
2019-03-08T14:21:15.033Z,11.21
2019-03-08T14:23:45.713Z,11.37
2019-03-08T14:26:16.469Z,11.20
2019-03-08T14:28:50.867Z,11.06
2019-03-08T14:31:29.384Z,10.83
2019-03-08T14:34:00.849Z,10.96
2019-03-08T14:36:32.913Z,11.02
2019-03-08T14:39:08.009Z,10.84
2019-03-08T14:41:53.093Z,10.63
2019-03-08T14:44:29.521Z,10.79
2019-03-08T14:47:00.343Z,10.77
2019-03-08T14:49:31.069Z,10.96
2019-03-08T14:52:01.737Z,11.08
2019-03-08T14:54:37.730Z,10.96
2019-03-08T14:57:09.235Z,11.10
2019-03-08T14:59:45.511Z,11.04
2019-03-08T15:02:29.760Z,11.13
2019-03-08T15:05:19.189Z,11.09
2019-03-08T15:07:55.613Z,10.84
2019-03-08T15:10:39.122Z,10.97
2019-03-08T15:13:03.128Z,11.06
2019-03-08T15:15:36.897Z,10.83
2019-03-08T15:18:07.665Z,10.74
2019-03-08T15:20:47.373Z,10.82
2019-03-08T15:23:18.266Z,11.06
2019-03-08T15:25:50.543Z,10.82
2019-03-08T15:28:22.454Z,10.90
2019-03-08T15:30:53.240Z,10.71
2019-03-08T15:33:27.101Z,10.64
2019-03-08T15:35:57.964Z,10.57
2019-03-08T15:38:30.570Z,10.48
2019-03-08T15:41:17.253Z,10.54
2019-03-08T15:43:51.192Z,10.57
2019-03-08T15:46:22.362Z,10.36
2019-03-08T15:48:54.465Z,10.54
2019-03-08T15:51:26.957Z,10.49
2019-03-08T15:53:59.148Z,10.58
2019-03-08T15:56:29.927Z,10.45
2019-03-08T15:59:00.976Z,10.44
2019-03-08T16:01:32.003Z,10.37
2019-03-08T16:04:12.073Z,10.39
2019-03-08T16:06:43.843Z,10.41
2019-03-08T16:09:14.405Z,10.45
2019-03-08T16:11:46.203Z,10.34
2019-03-08T16:14:41.618Z,10.50
2019-03-08T16:17:17.999Z,10.55
2019-03-08T16:19:48.793Z,10.53
2019-03-08T16:22:20.611Z,10.49
2019-03-08T16:24:52.329Z,10.42
2019-03-08T16:27:24.793Z,10.35
2019-03-08T16:29:56.861Z,10.22
2019-03-08T16:32:38.418Z,10.33
2019-03-08T16:35:42.129Z,10.17
2019-03-08T16:38:30.748Z,10.19
2019-03-08T16:41:15.228Z,10.14
2019-03-08T16:44:00.298Z,10.29
2019-03-08T16:46:38.500Z,10.31
2019-03-08T16:49:21.881Z,10.34
2019-03-08T16:51:57.000Z,10.29
2019-03-08T16:54:34.809Z,10.29
2019-03-08T16:57:23.107Z,10.37
2019-03-08T17:00:12.106Z,10.42
2019-03-08T17:03:09.774Z,10.23
2019-03-08T17:05:57.523Z,10.11
2019-03-08T17:08:55.461Z,10.26
2019-03-08T17:11:30.760Z,10.17
2019-03-08T17:14:03.134Z,10.06
2019-03-08T17:16:45.027Z,9.98
2019-03-08T17:19:20.061Z,9.99
2019-03-08T17:22:05.835Z,10.04
2019-03-08T17:24:38.192Z,10.11
2019-03-08T17:27:21.010Z,10.18
2019-03-08T17:29:53.417Z,10.14
2019-03-08T17:32:40.810Z,10.24
2019-03-08T17:35:15.441Z,10.04
2019-03-08T17:37:53.793Z,10.13
2019-03-08T17:43:49.010Z,9.94
2019-03-08T17:46:37.474Z,9.83
2019-03-08T17:49:19.818Z,9.85
2019-03-08T17:51:54.859Z,9.81
2019-03-08T17:54:30.120Z,9.72
2019-03-08T17:57:02.525Z,9.71
2019-03-08T17:59:46.960Z,9.69
2019-03-08T18:02:19.363Z,9.66
2019-03-08T18:04:54.742Z,9.43
2019-03-08T18:07:32.936Z,9.37
2019-03-08T18:10:05.543Z,9.40
2019-03-08T18:12:54.067Z,9.34
2019-03-08T18:15:33.114Z,9.36
2019-03-08T18:18:11.694Z,9.67
2019-03-08T18:20:47.522Z,9.58
2019-03-08T18:23:26.019Z,9.51
2019-03-08T18:26:27.717Z,9.31
2019-03-08T18:29:26.738Z,9.37
2019-03-08T18:32:17.361Z,9.15
2019-03-08T18:35:07.004Z,9.14
2019-03-08T18:37:49.728Z,9.14
2019-03-08T18:40:31.392Z,9.03
2019-03-08T18:43:15.983Z,8.93
2019-03-08T18:45:55.802Z,8.93
2019-03-08T18:48:32.074Z,9.02
2019-03-08T18:51:04.459Z,8.99
2019-03-08T18:53:57.046Z,8.89
2019-03-08T18:56:44.393Z,9.02
2019-03-08T18:59:41.134Z,8.88
2019-03-08T19:02:30.666Z,8.92
2019-03-08T19:05:21.614Z,8.93
2019-03-08T19:08:01.013Z,8.83
2019-03-08T19:10:36.869Z,8.72
2019-03-08T19:13:12.161Z,8.71
2019-03-08T19:15:47.655Z,8.71
2019-03-08T19:18:26.196Z,8.57
2019-03-08T19:20:58.713Z,8.64
2019-03-08T19:23:34.167Z,8.66
2019-03-08T19:26:24.776Z,8.70
2019-03-08T19:28:59.433Z,8.69
2019-03-08T19:31:32.105Z,8.65
2019-03-08T19:34:07.168Z,8.56
2019-03-08T19:36:39.979Z,8.69
2019-03-08T19:39:19.487Z,8.59
2019-03-08T19:42:06.894Z,8.68
2019-03-08T19:44:56.229Z,8.75
2019-03-08T19:47:52.623Z,8.64
2019-03-08T19:50:46.749Z,8.61
2019-03-08T19:53:35.598Z,8.56
2019-03-08T19:56:12.042Z,8.52
2019-03-08T19:59:00.008Z,8.67
2019-03-08T20:01:39.745Z,8.72
2019-03-08T20:04:31.250Z,8.55
2019-03-08T20:07:22.572Z,8.57
2019-03-08T20:09:54.964Z,8.52
2019-03-08T20:12:41.333Z,8.62
2019-03-08T20:15:22.797Z,8.58
2019-03-08T20:17:56.252Z,8.53
2019-03-08T20:20:53.875Z,8.57
2019-03-08T20:23:32.711Z,8.69
2019-03-08T20:26:08.876Z,8.65
2019-03-08T20:28:44.799Z,8.62
2019-03-08T20:31:26.773Z,8.61
2019-03-08T20:34:00.269Z,8.59
2019-03-08T20:36:54.509Z,8.57
2019-03-08T20:39:29.333Z,8.52
2019-03-08T20:42:02.336Z,8.71
2019-03-08T20:44:51.088Z,8.69
2019-03-08T20:47:25.523Z,8.66
2019-03-08T20:49:56.400Z,8.65
2019-03-08T20:52:28.728Z,8.59
2019-03-08T20:55:00.172Z,8.71
2019-03-08T20:57:32.864Z,8.54
2019-03-08T21:00:09.272Z,8.50
2019-03-08T21:02:41.420Z,8.61
2019-03-08T21:05:12.482Z,8.47
2019-03-08T21:07:43.339Z,8.42
2019-03-08T21:10:14.900Z,8.44
2019-03-08T21:12:46.826Z,8.49
2019-03-08T21:15:24.945Z,8.46
2019-03-08T21:17:50.574Z,8.50
2019-03-08T21:20:21.636Z,8.45
2019-03-08T21:23:04.667Z,8.50
2019-03-08T21:25:36.808Z,8.43
2019-03-08T21:28:08.093Z,8.43
2019-03-08T21:30:39.345Z,8.40
2019-03-08T21:33:12.718Z,8.36
2019-03-08T21:35:44.782Z,8.39
2019-03-08T21:38:16.845Z,8.33
2019-03-08T21:40:53.449Z,8.39
2019-03-08T21:43:26.367Z,8.36
2019-03-08T21:46:05.167Z,8.44
2019-03-08T21:48:49.353Z,8.47
2019-03-08T21:51:20.488Z,8.38
2019-03-08T21:53:51.485Z,8.37
2019-03-08T21:56:22.342Z,8.41
2019-03-08T21:58:54.417Z,8.27
2019-03-08T22:01:26.870Z,8.39
2019-03-08T22:04:08.986Z,8.44
2019-03-08T22:06:41.200Z,8.42
2019-03-08T22:09:32.901Z,8.42
2019-03-08T22:12:07.255Z,8.50
2019-03-08T22:14:46.225Z,8.43
2019-03-08T22:17:16.945Z,8.42
2019-03-08T22:19:47.875Z,8.47
2019-03-08T22:22:20.031Z,8.44
2019-03-08T22:24:52.019Z,8.52
2019-03-08T22:27:23.706Z,8.52
2019-03-08T22:29:57.490Z,8.45
2019-03-08T22:32:34.250Z,8.48
2019-03-08T22:35:09.414Z,8.33
2019-03-08T22:37:49.070Z,8.39
2019-03-08T22:40:19.859Z,8.38
2019-03-08T22:42:51.564Z,8.44
2019-03-08T22:45:22.364Z,8.39
2019-03-08T22:47:53.142Z,8.42
2019-03-08T22:50:34.124Z,8.40
2019-03-08T22:53:04.877Z,8.44
2019-03-08T22:55:35.616Z,8.40
2019-03-08T22:58:06.352Z,8.44
2019-03-08T23:00:59.198Z,8.30
2019-03-08T23:03:32.001Z,8.39
2019-03-08T23:06:06.412Z,8.45
2019-03-08T23:08:46.434Z,8.36
2019-03-08T23:11:17.176Z,8.39
2019-03-08T23:13:48.067Z,8.42
2019-03-08T23:16:18.837Z,8.44
2019-03-08T23:18:49.569Z,8.40
2019-03-08T23:21:21.250Z,8.37
2019-03-08T23:23:52.977Z,8.32
2019-03-08T23:26:25.639Z,8.30
2019-03-08T23:28:59.196Z,8.36
2019-03-08T23:31:31.581Z,8.21
2019-03-08T23:34:13.325Z,8.18
2019-03-08T23:36:44.107Z,8.12
2019-03-08T23:39:25.956Z,8.14
2019-03-08T23:41:56.604Z,8.11
2019-03-08T23:44:45.753Z,8.10
2019-03-08T23:47:16.329Z,8.16
2019-03-08T23:49:49.070Z,8.15
2019-03-08T23:52:33.098Z,8.19
2019-03-08T23:55:13.199Z,8.14
2019-03-08T23:57:45.840Z,8.08
